createdAt,value
2018-02-18T00:01:01.114Z,95862
2018-02-18T00:03:29.177Z,95868
2018-02-18T00:05:57.250Z,95868
2018-02-18T00:08:25.338Z,95882
2018-02-18T00:10:53.843Z,95878
2018-02-18T00:13:22.767Z,95881
2018-02-18T00:15:52.718Z,95872
2018-02-18T00:18:20.790Z,95877
2018-02-18T00:20:48.878Z,95878
2018-02-18T00:23:16.992Z,95883
2018-02-18T00:25:45.046Z,95894
2018-02-18T00:28:13.149Z,95895
2018-02-18T00:30:41.202Z,95904
2018-02-18T00:33:09.266Z,95910
2018-02-18T00:35:37.362Z,95914
2018-02-18T00:38:05.538Z,95909
2018-02-18T00:40:33.679Z,95909
2018-02-18T00:43:01.794Z,95916
2018-02-18T00:45:29.962Z,95916
2018-02-18T00:47:58.053Z,95906
2018-02-18T00:50:26.878Z,95906
2018-02-18T00:52:55.726Z,95897
2018-02-18T00:55:23.826Z,95911
2018-02-18T00:57:54.314Z,95933
2018-02-18T01:00:23.130Z,95933
2018-02-18T01:02:52.403Z,95922
2018-02-18T01:05:20.469Z,95929
2018-02-18T01:07:48.544Z,95929
2018-02-18T01:10:16.622Z,95936
2018-02-18T01:12:44.742Z,95934
2018-02-18T01:15:12.820Z,95941
2018-02-18T01:17:40.994Z,95937
2018-02-18T01:20:09.078Z,95929
2018-02-18T01:22:37.155Z,95936
2018-02-18T01:25:05.222Z,95952
2018-02-18T01:27:33.369Z,95943
2018-02-18T01:30:01.439Z,95945
2018-02-18T01:32:29.516Z,95943
2018-02-18T01:34:57.638Z,95949
2018-02-18T01:37:25.711Z,95946
2018-02-18T01:39:53.766Z,95943
2018-02-18T01:42:21.869Z,95946
2018-02-18T01:44:49.941Z,95954
2018-02-18T01:47:18.126Z,95964
2018-02-18T01:49:46.190Z,95957
2018-02-18T01:52:14.380Z,95961
2018-02-18T01:54:42.548Z,95951
2018-02-18T01:57:10.604Z,95955
2018-02-18T01:59:38.674Z,95959
2018-02-18T02:02:06.750Z,95967
2018-02-18T02:04:34.862Z,95962
2018-02-18T02:07:02.938Z,95966
2018-02-18T02:09:31.109Z,95959
2018-02-18T02:11:59.188Z,95972
2018-02-18T02:14:27.262Z,95963
2018-02-18T02:16:55.346Z,95958
2018-02-18T02:19:23.570Z,95960
2018-02-18T02:21:53.347Z,95960
2018-02-18T02:24:21.519Z,95964
2018-02-18T02:26:49.582Z,95970
2018-02-18T02:29:17.650Z,95970
2018-02-18T02:31:45.712Z,95971
2018-02-18T02:34:13.786Z,95955
2018-02-18T02:36:42.706Z,95972
2018-02-18T02:39:10.779Z,95973
2018-02-18T02:41:38.869Z,95986
2018-02-18T02:44:06.934Z,95987
2018-02-18T02:46:35.006Z,95989
2018-02-18T02:49:03.294Z,95982
2018-02-18T02:51:31.374Z,95995
2018-02-18T02:53:59.562Z,95988
2018-02-18T02:56:27.624Z,95988
2018-02-18T02:58:55.694Z,95989
2018-02-18T03:01:23.895Z,95999
2018-02-18T03:03:52.398Z,95994
2018-02-18T03:06:20.475Z,95992
2018-02-18T03:08:49.153Z,96007
2018-02-18T03:11:17.218Z,95991
2018-02-18T03:13:45.302Z,96016
2018-02-18T03:16:13.375Z,96005
2018-02-18T03:18:41.551Z,96013
2018-02-18T03:21:09.630Z,96003
2018-02-18T03:23:37.798Z,96005
2018-02-18T03:26:05.859Z,96012
2018-02-18T03:28:33.958Z,96012
2018-02-18T03:31:02.034Z,96015
2018-02-18T03:33:30.224Z,96009
2018-02-18T03:35:58.300Z,96006
2018-02-18T03:38:26.379Z,96004
2018-02-18T03:40:54.442Z,96009
2018-02-18T03:43:22.505Z,96026
2018-02-18T03:45:51.474Z,96011
2018-02-18T03:48:19.551Z,96014
2018-02-18T03:50:47.609Z,96016
2018-02-18T03:53:16.455Z,96026
2018-02-18T03:55:44.542Z,96022
2018-02-18T03:58:12.613Z,96028
2018-02-18T04:00:40.767Z,96027
2018-02-18T04:03:08.828Z,96024
2018-02-18T04:05:36.903Z,96028
2018-02-18T04:08:04.971Z,96023
2018-02-18T04:10:33.066Z,96034
2018-02-18T04:13:01.174Z,96041
2018-02-18T04:15:29.258Z,96026
2018-02-18T04:17:57.324Z,96034
2018-02-18T04:20:25.398Z,96033
2018-02-18T04:22:54.406Z,96042
2018-02-18T04:25:25.114Z,96049
2018-02-18T04:27:55.067Z,96043
2018-02-18T04:30:24.258Z,96048
2018-02-18T04:32:52.341Z,96036
2018-02-18T04:35:20.410Z,96057
2018-02-18T04:37:48.479Z,96048
2018-02-18T04:40:16.550Z,96033
2018-02-18T04:42:44.640Z,96053
2018-02-18T04:45:12.723Z,96045
2018-02-18T04:47:40.790Z,96043
2018-02-18T04:50:09.177Z,96048
2018-02-18T04:52:37.238Z,96050
2018-02-18T04:55:05.326Z,96056
2018-02-18T04:57:33.402Z,96059
2018-02-18T05:00:01.466Z,96062
2018-02-18T05:02:29.522Z,96050
2018-02-18T05:04:57.602Z,96053
2018-02-18T05:07:25.667Z,96059
2018-02-18T05:09:54.739Z,96049
2018-02-18T05:12:24.689Z,96040
2018-02-18T05:14:52.826Z,96050
2018-02-18T05:17:20.902Z,96056
2018-02-18T05:19:49.064Z,96043
2018-02-18T05:22:17.139Z,96052
2018-02-18T05:24:46.737Z,96054
2018-02-18T05:27:14.929Z,96060
2018-02-18T05:29:43.002Z,96065
2018-02-18T05:32:11.074Z,96065
2018-02-18T05:34:39.142Z,96067
2018-02-18T05:37:07.222Z,96069
2018-02-18T05:39:36.024Z,96081
2018-02-18T05:42:04.199Z,96079
2018-02-18T05:44:32.274Z,96081
2018-02-18T05:47:00.338Z,96077
2018-02-18T05:49:29.254Z,96078
2018-02-18T05:51:57.321Z,96075
2018-02-18T05:54:25.389Z,96087
2018-02-18T05:56:53.470Z,96096
2018-02-18T05:59:21.650Z,96089
2018-02-18T06:01:49.746Z,96089
2018-02-18T06:04:17.826Z,96100
2018-02-18T06:06:45.886Z,96092
2018-02-18T06:09:14.074Z,96093
2018-02-18T06:11:42.138Z,96099
2018-02-18T06:14:10.240Z,96089
2018-02-18T06:16:38.332Z,96101
2018-02-18T06:19:07.188Z,96094
2018-02-18T06:21:35.246Z,96104
2018-02-18T06:24:03.318Z,96107
2018-02-18T06:26:31.374Z,96112
2018-02-18T06:28:59.450Z,96109
2018-02-18T06:31:27.518Z,96111
2018-02-18T06:33:55.598Z,96110
2018-02-18T06:36:23.721Z,96109
2018-02-18T06:38:52.506Z,96118
2018-02-18T06:41:20.571Z,96114
2018-02-18T06:43:48.643Z,96111
2018-02-18T06:46:16.742Z,96104
2018-02-18T06:48:44.813Z,96121
2018-02-18T06:51:12.878Z,96120
2018-02-18T06:53:40.970Z,96120
2018-02-18T06:56:09.029Z,96117
2018-02-18T06:58:37.110Z,96123
2018-02-18T07:01:05.262Z,96123
2018-02-18T07:03:33.343Z,96127
2018-02-18T07:06:01.419Z,96136
2018-02-18T07:08:29.488Z,96135
2018-02-18T07:10:57.605Z,96121
2018-02-18T07:13:25.734Z,96122
2018-02-18T07:15:56.690Z,96122
2018-02-18T07:18:25.550Z,96134
2018-02-18T07:20:55.507Z,96127
2018-02-18T07:23:23.583Z,96120
2018-02-18T07:25:53.201Z,96123
2018-02-18T07:28:21.302Z,96137
2018-02-18T07:30:49.365Z,96142
2018-02-18T07:33:18.011Z,96127
2018-02-18T07:35:46.830Z,96133
2018-02-18T07:38:14.907Z,96119
2018-02-18T07:40:42.962Z,96144
2018-02-18T07:43:11.813Z,96137
2018-02-18T07:45:39.942Z,96143
2018-02-18T07:48:08.067Z,96147
2018-02-18T07:50:36.149Z,96146
2018-02-18T07:53:04.312Z,96141
2018-02-18T07:55:32.494Z,96144
2018-02-18T07:58:00.675Z,96141
2018-02-18T08:00:29.056Z,96141
2018-02-18T08:02:57.122Z,96140
2018-02-18T08:05:25.715Z,96136
2018-02-18T08:07:53.798Z,96129
2018-02-18T08:10:21.871Z,96130
2018-02-18T08:12:49.930Z,96122
2018-02-18T08:15:18.003Z,96133
2018-02-18T08:17:46.064Z,96134
2018-02-18T08:20:14.154Z,96130
2018-02-18T08:22:42.797Z,96148
2018-02-18T08:25:10.862Z,96133
2018-02-18T08:27:39.022Z,96152
2018-02-18T08:30:07.085Z,96157
2018-02-18T08:32:35.143Z,96147
2018-02-18T08:35:03.223Z,96146
2018-02-18T08:37:31.330Z,96139
2018-02-18T08:39:59.402Z,96140
2018-02-18T08:42:27.466Z,96146
2018-02-18T08:44:55.994Z,96145
2018-02-18T08:47:24.054Z,96159
2018-02-18T08:49:53.001Z,96147
2018-02-18T08:52:21.078Z,96150
2018-02-18T08:54:49.146Z,96156
2018-02-18T08:57:17.215Z,96150
2018-02-18T08:59:46.560Z,96164
2018-02-18T09:02:14.754Z,96160
2018-02-18T09:04:42.922Z,96162
2018-02-18T09:07:10.987Z,96150
2018-02-18T09:09:39.087Z,96148
2018-02-18T09:12:07.231Z,96161
2018-02-18T09:14:35.301Z,96159
2018-02-18T09:17:03.410Z,96167
2018-02-18T09:19:31.482Z,96165
2018-02-18T09:21:59.542Z,96158
2018-02-18T09:24:27.618Z,96166
2018-02-18T09:26:56.234Z,96165
2018-02-18T09:29:24.307Z,96156
2018-02-18T09:31:52.371Z,96166
2018-02-18T09:34:20.438Z,96169
2018-02-18T09:36:48.498Z,96167
2018-02-18T09:39:16.580Z,96171
2018-02-18T09:41:44.641Z,96168
2018-02-18T09:44:12.702Z,96174
2018-02-18T09:46:41.526Z,96162
2018-02-18T09:49:09.595Z,96170
2018-02-18T09:51:37.666Z,96167
2018-02-18T09:54:05.738Z,96175
2018-02-18T09:56:34.575Z,96171
2018-02-18T09:59:02.634Z,96185
2018-02-18T10:01:31.477Z,96177
2018-02-18T10:03:59.626Z,96182
2018-02-18T10:06:27.687Z,96175
2018-02-18T10:08:57.209Z,96185
2018-02-18T10:11:26.399Z,96187
2018-02-18T10:13:54.483Z,96184
2018-02-18T10:16:22.666Z,96189
2018-02-18T10:18:50.731Z,96182
2018-02-18T10:21:18.818Z,96177
2018-02-18T10:23:46.878Z,96190
2018-02-18T10:26:15.014Z,96180
2018-02-18T10:28:43.045Z,96178
2018-02-18T10:31:11.105Z,96191
2018-02-18T10:33:39.170Z,96185
2018-02-18T10:36:07.247Z,96180
2018-02-18T10:38:35.312Z,96180
2018-02-18T10:41:03.378Z,96180
2018-02-18T10:43:31.458Z,96186
2018-02-18T10:45:59.530Z,96187
2018-02-18T10:48:28.350Z,96183
2018-02-18T10:50:56.425Z,96182
2018-02-18T10:53:26.474Z,96175
2018-02-18T10:55:56.022Z,96187
2018-02-18T10:58:25.966Z,96184
2018-02-18T11:00:55.157Z,96166
2018-02-18T11:03:23.212Z,96173
2018-02-18T11:05:53.200Z,96179
2018-02-18T11:08:21.274Z,96166
2018-02-18T11:10:49.354Z,96167
2018-02-18T11:13:17.418Z,96170
2018-02-18T11:15:45.487Z,96171
2018-02-18T11:18:13.546Z,96167
2018-02-18T11:20:41.619Z,96161
2018-02-18T11:23:09.688Z,96162
2018-02-18T11:25:37.757Z,96155
2018-02-18T11:28:06.619Z,96155
2018-02-18T11:30:34.670Z,96165
2018-02-18T11:33:02.756Z,96164
2018-02-18T11:35:30.818Z,96157
2018-02-18T11:37:58.886Z,96173
2018-02-18T11:40:27.043Z,96173
2018-02-18T11:42:55.775Z,96160
2018-02-18T11:45:24.158Z,96157
2018-02-18T11:47:53.022Z,96156
2018-02-18T11:50:21.094Z,96143
2018-02-18T11:52:49.218Z,96149
2018-02-18T11:55:17.289Z,96149
2018-02-18T11:57:45.360Z,96158
2018-02-18T12:00:13.510Z,96149
2018-02-18T12:02:41.624Z,96142
2018-02-18T12:05:09.706Z,96133
2018-02-18T12:07:37.879Z,96133
2018-02-18T12:10:05.970Z,96136
2018-02-18T12:12:34.076Z,96135
2018-02-18T12:15:02.131Z,96130
2018-02-18T12:17:31.002Z,96131
2018-02-18T12:19:59.074Z,96133
2018-02-18T12:22:27.169Z,96132
2018-02-18T12:24:56.170Z,96125
2018-02-18T12:27:24.331Z,96129
2018-02-18T12:29:52.398Z,96122
2018-02-18T12:32:20.693Z,96126
2018-02-18T12:34:48.763Z,96123
2018-02-18T12:37:16.830Z,96131
2018-02-18T12:39:45.009Z,96123
2018-02-18T12:42:13.512Z,96111
2018-02-18T12:44:42.496Z,96128
2018-02-18T12:47:10.625Z,96126
2018-02-18T12:49:38.699Z,96117
2018-02-18T12:52:06.766Z,96111
2018-02-18T12:54:36.423Z,96110
2018-02-18T12:57:05.258Z,96102
2018-02-18T12:59:34.339Z,96113
2018-02-18T13:02:02.558Z,96107
2018-02-18T13:04:32.767Z,96105
2018-02-18T13:07:02.104Z,96116
2018-02-18T13:09:30.568Z,96104
2018-02-18T13:11:59.406Z,96113
2018-02-18T13:14:27.601Z,96108
2018-02-18T13:16:56.514Z,96108
2018-02-18T13:19:27.194Z,96107
2018-02-18T13:21:57.155Z,96105
2018-02-18T13:24:26.524Z,96099
2018-02-18T13:26:54.582Z,96111
2018-02-18T13:29:22.650Z,96102
2018-02-18T13:31:52.627Z,96090
2018-02-18T13:34:20.680Z,96098
2018-02-18T13:36:48.770Z,96097
2018-02-18T13:39:17.586Z,96107
2018-02-18T13:41:45.746Z,96103
2018-02-18T13:44:13.826Z,96103
2018-02-18T13:46:41.927Z,96099
2018-02-18T13:49:09.982Z,96104
2018-02-18T13:51:38.149Z,96103
2018-02-18T13:54:06.454Z,96109
2018-02-18T13:56:34.535Z,96106
2018-02-18T13:59:02.602Z,96103
2018-02-18T14:01:31.435Z,96101
2018-02-18T14:03:59.714Z,96098
2018-02-18T14:06:27.840Z,96109
2018-02-18T14:08:57.047Z,96112
2018-02-18T14:11:25.214Z,96115
2018-02-18T14:13:53.283Z,96114
2018-02-18T14:16:21.365Z,96109
2018-02-18T14:18:49.426Z,96116
2018-02-18T14:21:17.495Z,96119
2018-02-18T14:23:45.690Z,96120
2018-02-18T14:26:14.195Z,96111
2018-02-18T14:28:42.271Z,96129
2018-02-18T14:31:10.352Z,96121
2018-02-18T14:33:38.434Z,96128
2018-02-18T14:36:06.606Z,96134
2018-02-18T14:38:34.674Z,96134
2018-02-18T14:41:02.744Z,96122
2018-02-18T14:43:48.764Z,96131
2018-02-18T14:49:43.526Z,96138
2018-02-18T14:52:29.580Z,96137
2018-02-18T14:58:09.966Z,96130
2018-02-18T15:00:38.051Z,96138
2018-02-18T15:03:06.144Z,96132
2018-02-18T15:05:34.227Z,96142
2018-02-18T15:08:02.383Z,96134
2018-02-18T15:10:30.463Z,96128
2018-02-18T15:12:58.535Z,96138
2018-02-18T15:15:27.567Z,96137
2018-02-18T15:17:57.546Z,96144
2018-02-18T15:20:25.602Z,96141
2018-02-18T15:22:53.701Z,96129
2018-02-18T15:25:21.882Z,96142
2018-02-18T15:27:49.952Z,96139
2018-02-18T15:30:18.016Z,96138
2018-02-18T15:32:46.094Z,96138
2018-02-18T15:35:14.186Z,96132
2018-02-18T15:37:42.367Z,96126
2018-02-18T15:40:10.506Z,96124
2018-02-18T15:42:38.574Z,96132
2018-02-18T15:45:06.633Z,96123
2018-02-18T15:47:35.486Z,96132
2018-02-18T15:50:03.579Z,96123
2018-02-18T15:52:31.742Z,96120
2018-02-18T15:54:59.798Z,96121
2018-02-18T15:57:28.101Z,96123
2018-02-18T15:59:56.274Z,96125
2018-02-18T16:02:24.361Z,96121
2018-02-18T16:04:52.428Z,96118
2018-02-18T16:07:20.507Z,96119
2018-02-18T16:09:48.591Z,96129
2018-02-18T16:12:16.650Z,96129
2018-02-18T16:14:44.706Z,96130
2018-02-18T16:17:12.783Z,96107
2018-02-18T16:19:41.616Z,96120
2018-02-18T16:22:09.682Z,96120
2018-02-18T16:24:38.888Z,96117
2018-02-18T16:27:06.956Z,96128
2018-02-18T16:29:35.025Z,96125
2018-02-18T16:32:03.090Z,96118
2018-02-18T16:34:31.194Z,96113
2018-02-18T16:36:59.429Z,96112
2018-02-18T16:39:27.433Z,96110
2018-02-18T16:41:55.506Z,96110
2018-02-18T16:44:23.585Z,96111
2018-02-18T16:46:52.290Z,96115
2018-02-18T16:49:21.197Z,96117
2018-02-18T16:51:49.267Z,96119
2018-02-18T16:54:17.323Z,96108
2018-02-18T16:56:45.417Z,96117
2018-02-18T16:59:13.830Z,96113
2018-02-18T17:01:43.798Z,96114
2018-02-18T17:04:11.858Z,96114
2018-02-18T17:06:40.318Z,96111
2018-02-18T17:09:09.175Z,96099
2018-02-18T17:11:37.234Z,96107
2018-02-18T17:14:05.299Z,96108
2018-02-18T17:16:33.361Z,96103
2018-02-18T17:19:01.434Z,96111
2018-02-18T17:21:29.499Z,96114
2018-02-18T17:23:58.330Z,96101
2018-02-18T17:26:26.387Z,96095
2018-02-18T17:28:54.443Z,96106
2018-02-18T17:31:23.274Z,96097
2018-02-18T17:33:52.364Z,96102
2018-02-18T17:36:20.430Z,96092
2018-02-18T17:38:48.508Z,96097
2018-02-18T17:41:16.562Z,96089
2018-02-18T17:43:45.394Z,96093
2018-02-18T17:46:13.450Z,96091
2018-02-18T17:48:41.570Z,96075
2018-02-18T17:51:10.871Z,96078
2018-02-18T17:53:38.954Z,96079
2018-02-18T17:56:07.006Z,96072
2018-02-18T17:58:35.526Z,96069
2018-02-18T18:01:03.593Z,96072
2018-02-18T18:03:31.647Z,96078
2018-02-18T18:05:59.706Z,96085
2018-02-18T18:08:27.822Z,96088
2018-02-18T18:10:55.890Z,96072
2018-02-18T18:13:23.959Z,96081
2018-02-18T18:15:53.058Z,96087
2018-02-18T18:18:21.134Z,96080
2018-02-18T18:20:49.214Z,96068
2018-02-18T18:23:17.306Z,96086
2018-02-18T18:25:45.370Z,96041
2018-02-18T18:28:13.446Z,96077
2018-02-18T18:30:42.683Z,96078
2018-02-18T18:33:11.507Z,96077
2018-02-18T18:35:39.576Z,96069
2018-02-18T18:38:07.701Z,96071
2018-02-18T18:40:36.690Z,96070
2018-02-18T18:43:05.909Z,96069
2018-02-18T18:45:34.754Z,96062
2018-02-18T18:48:03.206Z,96071
2018-02-18T18:50:32.911Z,96064
2018-02-18T18:53:00.984Z,96064
2018-02-18T18:55:29.055Z,96061
2018-02-18T18:57:57.251Z,96068
2018-02-18T19:00:25.404Z,96054
2018-02-18T19:02:54.297Z,96057
2018-02-18T19:05:22.363Z,96051
2018-02-18T19:07:50.446Z,96057
2018-02-18T19:10:18.522Z,96050
2018-02-18T19:12:46.622Z,96041
2018-02-18T19:15:15.810Z,96040
2018-02-18T19:17:43.891Z,96037
2018-02-18T19:20:11.965Z,96038
2018-02-18T19:22:40.042Z,96047
2018-02-18T19:25:08.153Z,96047
2018-02-18T19:27:37.170Z,96030
2018-02-18T19:30:05.267Z,96043
2018-02-18T19:32:33.353Z,96044
2018-02-18T19:35:01.414Z,96043
2018-02-18T19:37:29.490Z,96033
2018-02-18T19:39:57.966Z,96036
2018-02-18T19:42:26.075Z,96032
2018-02-18T19:44:54.136Z,96032
2018-02-18T19:47:22.207Z,96052
2018-02-18T19:49:50.272Z,96029
2018-02-18T19:52:18.404Z,96039
2018-02-18T19:54:47.387Z,96022
2018-02-18T19:57:15.516Z,96029
2018-02-18T19:59:43.602Z,96034
2018-02-18T20:02:11.674Z,96025
2018-02-18T20:04:39.768Z,96026
2018-02-18T20:07:07.866Z,96023
2018-02-18T20:09:35.939Z,96013
2018-02-18T20:12:04.123Z,96024
2018-02-18T20:14:32.293Z,96018
2018-02-18T20:17:00.474Z,96001
2018-02-18T20:19:28.576Z,96022
2018-02-18T20:21:58.770Z,96007
2018-02-18T20:24:26.853Z,96007
2018-02-18T20:26:54.922Z,95993
2018-02-18T20:29:22.993Z,96003
2018-02-18T20:31:52.202Z,95998
2018-02-18T20:34:20.428Z,95981
2018-02-18T20:36:49.307Z,95989
2018-02-18T20:39:17.391Z,95990
2018-02-18T20:41:46.238Z,95977
2018-02-18T20:44:14.301Z,95984
2018-02-18T20:46:42.498Z,95974
2018-02-18T20:49:10.849Z,95971
2018-02-18T20:51:38.954Z,95967
2018-02-18T20:54:07.029Z,95971
2018-02-18T20:56:35.122Z,95960
2018-02-18T20:59:03.258Z,95961
2018-02-18T21:01:31.378Z,95943
2018-02-18T21:03:59.490Z,95947
2018-02-18T21:06:29.562Z,95960
2018-02-18T21:08:57.642Z,95949
2018-02-18T21:11:25.726Z,95958
2018-02-18T21:13:53.802Z,95937
2018-02-18T21:16:21.883Z,95941
2018-02-18T21:18:49.955Z,95946
2018-02-18T21:21:18.023Z,95939
2018-02-18T21:23:46.210Z,95935
2018-02-18T21:26:14.718Z,95947
2018-02-18T21:28:43.576Z,95932
2018-02-18T21:31:11.655Z,95929
2018-02-18T21:33:40.079Z,95930
2018-02-18T21:36:09.253Z,95927
2018-02-18T21:38:37.317Z,95919
2018-02-18T21:41:05.454Z,95928
2018-02-18T21:43:33.579Z,95926
2018-02-18T21:46:02.028Z,95928
2018-02-18T21:48:30.355Z,95921
2018-02-18T21:50:58.828Z,95930
2018-02-18T21:53:28.197Z,95922
2018-02-18T21:55:56.621Z,95924
2018-02-18T21:58:25.129Z,95925
2018-02-18T22:00:53.216Z,95901
2018-02-18T22:03:21.333Z,95901
2018-02-18T22:05:49.438Z,95898
2018-02-18T22:08:17.840Z,95899
2018-02-18T22:10:45.906Z,95891
2018-02-18T22:13:14.208Z,95893
2018-02-18T22:15:42.290Z,95888
2018-02-18T22:18:11.659Z,95885
2018-02-18T22:20:39.722Z,95880
2018-02-18T22:23:07.804Z,95884
2018-02-18T22:25:35.886Z,95873
2018-02-18T22:28:03.962Z,95880
2018-02-18T22:30:32.054Z,95862
2018-02-18T22:33:00.562Z,95872
2018-02-18T22:35:30.550Z,95865
2018-02-18T22:37:58.625Z,95860
2018-02-18T22:40:26.821Z,95862
2018-02-18T22:42:54.875Z,95868
2018-02-18T22:45:22.952Z,95855
2018-02-18T22:47:52.901Z,95858
2018-02-18T22:50:21.783Z,95846
2018-02-18T22:52:50.630Z,95841
2018-02-18T22:55:18.704Z,95862
2018-02-18T22:57:46.771Z,95852
2018-02-18T23:00:20.226Z,95853
2018-02-18T23:02:48.292Z,95849
2018-02-18T23:05:21.873Z,95837
2018-02-18T23:07:49.986Z,95837
2018-02-18T23:10:18.146Z,95823
2018-02-18T23:12:47.050Z,95848
2018-02-18T23:15:15.218Z,95822
2018-02-18T23:17:43.293Z,95831
2018-02-18T23:20:11.366Z,95825
2018-02-18T23:22:39.425Z,95832
2018-02-18T23:25:07.498Z,95825
2018-02-18T23:27:35.566Z,95837
2018-02-18T23:30:03.646Z,95837
2018-02-18T23:32:31.728Z,95804
2018-02-18T23:34:59.805Z,95834
2018-02-18T23:37:27.878Z,95820
2018-02-18T23:39:55.974Z,95819
2018-02-18T23:42:24.063Z,95802
2018-02-18T23:44:52.721Z,95811
2018-02-18T23:47:20.835Z,95809
2018-02-18T23:49:48.918Z,95825
2018-02-18T23:52:16.984Z,95813
2018-02-18T23:54:45.161Z,95811
2018-02-18T23:57:13.334Z,95790
2018-02-18T23:59:41.539Z,95817
